Pagrindinis puslapis
METAR-TAF:

METAR-TAF

Oro uostai :

Aleksandrupolis, Graikija

platuma: 40-51N, ilguma: 025-55E, Aukštis: 7 m

Dabartinis oras

Ataskaita buvo paskelbta 42 minutes, ne 07:20 UTC
Vėjas 10 kt iš Pietų
Temperatūra 21°C
Drėgmė 73%
Slėgis 1010 hPa
Matomumas 10 km arba daugiau
Išsisklaidę debesys ne aukštis 1600 ft

METAR: LGAL 140720Z 19010KT 9999 SCT016 21/16 Q1010

Laikas: 11:02 (08:02 UTC)

Prognozė

Ataskaita buvo paskelbta 3 valandos ir 2 minutes, ne 05:00 UTC
Prognozė galioja nuo 14 metu 06 UTC su 14 metu 15 UTC
Vėjas 10 kt iš Pietų/Pietvakarių
Matomumas 10 km arba daugiau
Mažai debesys ne aukštis 2500 ft

TAF: LGAL 140500Z 1406/1415 20010KT 9999 FEW025

Orai ataskaitas ir orų prognozės (METAR, TAF).

turimą stotys yra geltonos ir raudonos taškus žemėlapyje.

Perkelti pele per norėdami pamatyti stoties vardą.

Tada spustelėkite, norėdami matyti oro stebėjimo ir prognozės.

Norėdami pakeisti žemėlapį: spustelėkite ant žalios mygtukų su juodo kryžiaus žemyn,; žalią mygtuką su brūkšneliu, jei norite nutolinti; arba žalių rodyklių gretimoms žemėlapius.


METAR-TAF: